sensor_id;sensor_type;location;lat;lon;timestamp;P1;durP1;ratioP1;P2;durP2;ratioP2
6825;SDS011;3451;52.476;13.316;2022-11-11T00:00:58;10.13;;;2.67;;
6825;SDS011;3451;52.476;13.316;2022-11-11T00:03:25;6.73;;;2.63;;
6825;SDS011;3451;52.476;13.316;2022-11-11T00:05:52;9.77;;;3.30;;
6825;SDS011;3451;52.476;13.316;2022-11-11T00:08:18;12.43;;;3.20;;
6825;SDS011;3451;52.476;13.316;2022-11-11T00:10:44;8.53;;;2.87;;
6825;SDS011;3451;52.476;13.316;2022-11-11T00:13:11;7.93;;;3.03;;
6825;SDS011;3451;52.476;13.316;2022-11-11T00:15:37;9.50;;;3.30;;
6825;SDS011;3451;52.476;13.316;2022-11-11T00:18:04;8.00;;;3.20;;
6825;SDS011;3451;52.476;13.316;2022-11-11T00:20:49;9.03;;;2.90;;
6825;SDS011;3451;52.476;13.316;2022-11-11T00:23:34;7.73;;;3.27;;
6825;SDS011;3451;52.476;13.316;2022-11-11T00:26:19;8.97;;;3.20;;
6825;SDS011;3451;52.476;13.316;2022-11-11T00:29:04;6.43;;;2.97;;
6825;SDS011;3451;52.476;13.316;2022-11-11T00:31:30;9.37;;;3.10;;
6825;SDS011;3451;52.476;13.316;2022-11-11T00:33:56;7.90;;;3.07;;
6825;SDS011;3451;52.476;13.316;2022-11-11T00:36:22;9.07;;;3.30;;
6825;SDS011;3451;52.476;13.316;2022-11-11T00:38:49;9.03;;;2.90;;
6825;SDS011;3451;52.476;13.316;2022-11-11T00:41:18;8.40;;;3.00;;
6825;SDS011;3451;52.476;13.316;2022-11-11T00:43:45;12.70;;;4.00;;
6825;SDS011;3451;52.476;13.316;2022-11-11T00:46:15;7.23;;;3.00;;
6825;SDS011;3451;52.476;13.316;2022-11-11T00:49:00;7.23;;;2.70;;
6825;SDS011;3451;52.476;13.316;2022-11-11T00:51:45;7.33;;;3.27;;
6825;SDS011;3451;52.476;13.316;2022-11-11T00:54:12;13.57;;;3.10;;
6825;SDS011;3451;52.476;13.316;2022-11-11T00:56:38;11.93;;;3.77;;
6825;SDS011;3451;52.476;13.316;2022-11-11T00:59:05;11.57;;;3.10;;
6825;SDS011;3451;52.476;13.316;2022-11-11T01:01:32;7.37;;;3.30;;
6825;SDS011;3451;52.476;13.316;2022-11-11T01:03:59;8.57;;;3.37;;
6825;SDS011;3451;52.476;13.316;2022-11-11T01:06:26;9.70;;;3.37;;
6825;SDS011;3451;52.476;13.316;2022-11-11T01:08:52;11.47;;;3.20;;
6825;SDS011;3451;52.476;13.316;2022-11-11T01:11:19;10.40;;;3.60;;
6825;SDS011;3451;52.476;13.316;2022-11-11T01:13:45;8.13;;;3.40;;
6825;SDS011;3451;52.476;13.316;2022-11-11T01:16:14;7.83;;;3.17;;
6825;SDS011;3451;52.476;13.316;2022-11-11T01:18:41;9.50;;;3.80;;
6825;SDS011;3451;52.476;13.316;2022-11-11T01:21:11;9.93;;;3.27;;
6825;SDS011;3451;52.476;13.316;2022-11-11T01:23:39;10.60;;;3.30;;
6825;SDS011;3451;52.476;13.316;2022-11-11T01:26:17;13.03;;;3.80;;
6825;SDS011;3451;52.476;13.316;2022-11-11T01:28:44;10.27;;;3.03;;
6825;SDS011;3451;52.476;13.316;2022-11-11T01:31:13;7.50;;;3.47;;
6825;SDS011;3451;52.476;13.316;2022-11-11T01:33:40;9.17;;;3.87;;
6825;SDS011;3451;52.476;13.316;2022-11-11T01:36:08;8.17;;;3.10;;
6825;SDS011;3451;52.476;13.316;2022-11-11T01:38:35;8.07;;;3.30;;
6825;SDS011;3451;52.476;13.316;2022-11-11T01:41:02;10.17;;;3.33;;
6825;SDS011;3451;52.476;13.316;2022-11-11T01:43:48;8.67;;;3.70;;
6825;SDS011;3451;52.476;13.316;2022-11-11T01:46:16;7.87;;;3.20;;
6825;SDS011;3451;52.476;13.316;2022-11-11T01:48:50;6.47;;;3.10;;
6825;SDS011;3451;52.476;13.316;2022-11-11T01:54:03;9.73;;;3.30;;
6825;SDS011;3451;52.476;13.316;2022-11-11T01:56:31;10.67;;;3.80;;
6825;SDS011;3451;52.476;13.316;2022-11-11T01:58:59;10.20;;;3.20;;
6825;SDS011;3451;52.476;13.316;2022-11-11T02:01:26;12.07;;;3.87;;
6825;SDS011;3451;52.476;13.316;2022-11-11T02:03:53;11.07;;;3.43;;
6825;SDS011;3451;52.476;13.316;2022-11-11T02:06:39;12.37;;;3.77;;
6825;SDS011;3451;52.476;13.316;2022-11-11T02:09:05;8.57;;;3.00;;
6825;SDS011;3451;52.476;13.316;2022-11-11T02:11:32;11.03;;;2.93;;
6825;SDS011;3451;52.476;13.316;2022-11-11T02:14:18;10.30;;;3.77;;
6825;SDS011;3451;52.476;13.316;2022-11-11T02:17:06;7.87;;;3.60;;
6825;SDS011;3451;52.476;13.316;2022-11-11T02:19:36;11.87;;;3.53;;
6825;SDS011;3451;52.476;13.316;2022-11-11T02:22:03;7.50;;;3.57;;
6825;SDS011;3451;52.476;13.316;2022-11-11T02:24:31;8.70;;;3.17;;
6825;SDS011;3451;52.476;13.316;2022-11-11T02:26:57;10.67;;;3.70;;
6825;SDS011;3451;52.476;13.316;2022-11-11T02:29:24;8.70;;;3.47;;
6825;SDS011;3451;52.476;13.316;2022-11-11T02:31:51;6.90;;;3.27;;
6825;SDS011;3451;52.476;13.316;2022-11-11T02:34:17;11.37;;;3.10;;
6825;SDS011;3451;52.476;13.316;2022-11-11T02:36:44;8.17;;;3.07;;
6825;SDS011;3451;52.476;13.316;2022-11-11T02:39:10;10.00;;;3.10;;
6825;SDS011;3451;52.476;13.316;2022-11-11T02:41:36;10.73;;;4.40;;
6825;SDS011;3451;52.476;13.316;2022-11-11T02:44:23;8.53;;;3.60;;
6825;SDS011;3451;52.476;13.316;2022-11-11T02:46:50;9.17;;;3.50;;
6825;SDS011;3451;52.476;13.316;2022-11-11T02:49:17;10.03;;;3.53;;
6825;SDS011;3451;52.476;13.316;2022-11-11T02:51:43;9.90;;;3.70;;
6825;SDS011;3451;52.476;13.316;2022-11-11T02:54:10;10.50;;;3.63;;
6825;SDS011;3451;52.476;13.316;2022-11-11T02:56:36;9.10;;;3.03;;
6825;SDS011;3451;52.476;13.316;2022-11-11T02:59:21;7.10;;;3.20;;
6825;SDS011;3451;52.476;13.316;2022-11-11T03:01:48;9.67;;;3.40;;
6825;SDS011;3451;52.476;13.316;2022-11-11T03:04:14;13.80;;;3.87;;
6825;SDS011;3451;52.476;13.316;2022-11-11T03:06:41;12.07;;;3.70;;
6825;SDS011;3451;52.476;13.316;2022-11-11T03:09:07;13.83;;;3.50;;
6825;SDS011;3451;52.476;13.316;2022-11-11T03:11:33;9.63;;;3.73;;
6825;SDS011;3451;52.476;13.316;2022-11-11T03:14:03;8.83;;;3.33;;
6825;SDS011;3451;52.476;13.316;2022-11-11T03:16:30;9.53;;;4.13;;
6825;SDS011;3451;52.476;13.316;2022-11-11T03:19:15;7.33;;;3.50;;
6825;SDS011;3451;52.476;13.316;2022-11-11T03:21:41;11.10;;;3.60;;
6825;SDS011;3451;52.476;13.316;2022-11-11T03:24:29;6.97;;;3.20;;
6825;SDS011;3451;52.476;13.316;2022-11-11T03:27:15;8.70;;;3.57;;
6825;SDS011;3451;52.476;13.316;2022-11-11T03:29:41;6.03;;;3.20;;
6825;SDS011;3451;52.476;13.316;2022-11-11T03:32:08;8.40;;;3.77;;
6825;SDS011;3451;52.476;13.316;2022-11-11T03:34:35;9.70;;;3.77;;
6825;SDS011;3451;52.476;13.316;2022-11-11T03:37:01;8.07;;;3.50;;
6825;SDS011;3451;52.476;13.316;2022-11-11T03:39:46;10.73;;;4.20;;
6825;SDS011;3451;52.476;13.316;2022-11-11T03:42:12;9.77;;;3.87;;
6825;SDS011;3451;52.476;13.316;2022-11-11T03:44:38;8.40;;;3.70;;
6825;SDS011;3451;52.476;13.316;2022-11-11T03:47:05;13.00;;;3.60;;
6825;SDS011;3451;52.476;13.316;2022-11-11T03:49:31;10.43;;;3.43;;
6825;SDS011;3451;52.476;13.316;2022-11-11T03:51:57;7.83;;;3.47;;
6825;SDS011;3451;52.476;13.316;2022-11-11T03:54:24;10.33;;;3.73;;
6825;SDS011;3451;52.476;13.316;2022-11-11T03:56:50;5.30;;;3.17;;
6825;SDS011;3451;52.476;13.316;2022-11-11T03:59:16;9.67;;;3.50;;
6825;SDS011;3451;52.476;13.316;2022-11-11T04:01:42;7.83;;;3.53;;
6825;SDS011;3451;52.476;13.316;2022-11-11T04:04:28;5.40;;;2.93;;
6825;SDS011;3451;52.476;13.316;2022-11-11T04:07:13;11.47;;;3.70;;
6825;SDS011;3451;52.476;13.316;2022-11-11T04:09:57;8.13;;;3.30;;
6825;SDS011;3451;52.476;13.316;2022-11-11T04:12:42;10.17;;;3.47;;
6825;SDS011;3451;52.476;13.316;2022-11-11T04:15:27;10.03;;;3.47;;
6825;SDS011;3451;52.476;13.316;2022-11-11T04:18:12;9.53;;;3.80;;
6825;SDS011;3451;52.476;13.316;2022-11-11T04:20:38;9.37;;;3.40;;
6825;SDS011;3451;52.476;13.316;2022-11-11T04:23:43;10.53;;;3.87;;
6825;SDS011;3451;52.476;13.316;2022-11-11T04:26:09;12.07;;;3.60;;
6825;SDS011;3451;52.476;13.316;2022-11-11T04:28:35;9.03;;;3.47;;
6825;SDS011;3451;52.476;13.316;2022-11-11T04:31:20;6.13;;;3.43;;
6825;SDS011;3451;52.476;13.316;2022-11-11T04:33:47;8.03;;;3.53;;
6825;SDS011;3451;52.476;13.316;2022-11-11T04:36:13;8.60;;;3.80;;
6825;SDS011;3451;52.476;13.316;2022-11-11T04:38:40;8.50;;;3.50;;
6825;SDS011;3451;52.476;13.316;2022-11-11T04:41:25;8.57;;;3.23;;
6825;SDS011;3451;52.476;13.316;2022-11-11T04:44:11;9.63;;;3.83;;
6825;SDS011;3451;52.476;13.316;2022-11-11T04:46:56;7.33;;;3.70;;
6825;SDS011;3451;52.476;13.316;2022-11-11T04:49:22;12.10;;;3.70;;
6825;SDS011;3451;52.476;13.316;2022-11-11T04:51:48;12.77;;;3.63;;
6825;SDS011;3451;52.476;13.316;2022-11-11T04:54:33;9.13;;;3.67;;
6825;SDS011;3451;52.476;13.316;2022-11-11T04:57:19;9.87;;;3.17;;
6825;SDS011;3451;52.476;13.316;2022-11-11T04:59:46;11.47;;;3.73;;
6825;SDS011;3451;52.476;13.316;2022-11-11T05:02:12;7.97;;;3.63;;
6825;SDS011;3451;52.476;13.316;2022-11-11T05:04:57;6.47;;;3.63;;
6825;SDS011;3451;52.476;13.316;2022-11-11T05:07:23;8.33;;;3.90;;
6825;SDS011;3451;52.476;13.316;2022-11-11T05:10:08;12.40;;;3.80;;
6825;SDS011;3451;52.476;13.316;2022-11-11T05:12:34;10.23;;;3.80;;
6825;SDS011;3451;52.476;13.316;2022-11-11T05:15:01;9.80;;;3.47;;
6825;SDS011;3451;52.476;13.316;2022-11-11T05:17:45;8.33;;;3.57;;
6825;SDS011;3451;52.476;13.316;2022-11-11T05:20:30;5.97;;;3.20;;
6825;SDS011;3451;52.476;13.316;2022-11-11T05:23:15;8.43;;;3.73;;
6825;SDS011;3451;52.476;13.316;2022-11-11T05:25:41;8.37;;;3.93;;
6825;SDS011;3451;52.476;13.316;2022-11-11T05:28:08;8.53;;;3.40;;
6825;SDS011;3451;52.476;13.316;2022-11-11T05:30:34;11.03;;;3.63;;
6825;SDS011;3451;52.476;13.316;2022-11-11T05:33:01;8.63;;;3.30;;
6825;SDS011;3451;52.476;13.316;2022-11-11T05:35:27;6.77;;;3.87;;
6825;SDS011;3451;52.476;13.316;2022-11-11T05:37:53;10.37;;;3.57;;
6825;SDS011;3451;52.476;13.316;2022-11-11T05:40:45;9.27;;;4.03;;
6825;SDS011;3451;52.476;13.316;2022-11-11T05:43:11;8.30;;;3.50;;
6825;SDS011;3451;52.476;13.316;2022-11-11T05:45:39;10.13;;;3.80;;
6825;SDS011;3451;52.476;13.316;2022-11-11T05:48:06;7.50;;;3.60;;
6825;SDS011;3451;52.476;13.316;2022-11-11T05:50:32;8.90;;;3.90;;
6825;SDS011;3451;52.476;13.316;2022-11-11T05:52:58;10.43;;;3.83;;
6825;SDS011;3451;52.476;13.316;2022-11-11T05:55:24;8.73;;;4.20;;
6825;SDS011;3451;52.476;13.316;2022-11-11T05:57:51;8.50;;;3.80;;
6825;SDS011;3451;52.476;13.316;2022-11-11T06:00:18;11.77;;;3.90;;
6825;SDS011;3451;52.476;13.316;2022-11-11T06:02:44;11.50;;;3.90;;
6825;SDS011;3451;52.476;13.316;2022-11-11T06:05:10;9.07;;;3.83;;
6825;SDS011;3451;52.476;13.316;2022-11-11T06:07:37;12.70;;;3.60;;
6825;SDS011;3451;52.476;13.316;2022-11-11T06:10:04;9.07;;;3.77;;
6825;SDS011;3451;52.476;13.316;2022-11-11T06:12:51;10.37;;;3.93;;
6825;SDS011;3451;52.476;13.316;2022-11-11T06:15:31;9.67;;;3.70;;
6825;SDS011;3451;52.476;13.316;2022-11-11T06:17:58;8.87;;;3.30;;
6825;SDS011;3451;52.476;13.316;2022-11-11T06:20:24;11.23;;;3.80;;
6825;SDS011;3451;52.476;13.316;2022-11-11T06:22:50;9.33;;;4.07;;
6825;SDS011;3451;52.476;13.316;2022-11-11T06:25:23;10.03;;;3.30;;
6825;SDS011;3451;52.476;13.316;2022-11-11T06:28:09;9.70;;;3.90;;
6825;SDS011;3451;52.476;13.316;2022-11-11T06:30:35;8.27;;;3.60;;
6825;SDS011;3451;52.476;13.316;2022-11-11T06:33:15;6.30;;;3.33;;
6825;SDS011;3451;52.476;13.316;2022-11-11T06:35:42;7.83;;;3.60;;
6825;SDS011;3451;52.476;13.316;2022-11-11T06:38:08;10.07;;;3.83;;
6825;SDS011;3451;52.476;13.316;2022-11-11T06:40:35;10.03;;;3.77;;
6825;SDS011;3451;52.476;13.316;2022-11-11T06:43:01;8.47;;;3.30;;
6825;SDS011;3451;52.476;13.316;2022-11-11T06:45:28;11.67;;;4.13;;
6825;SDS011;3451;52.476;13.316;2022-11-11T06:47:54;10.43;;;4.10;;
6825;SDS011;3451;52.476;13.316;2022-11-11T06:50:20;10.63;;;3.77;;
6825;SDS011;3451;52.476;13.316;2022-11-11T06:52:47;11.03;;;4.30;;
6825;SDS011;3451;52.476;13.316;2022-11-11T06:55:13;10.33;;;4.27;;
6825;SDS011;3451;52.476;13.316;2022-11-11T06:57:39;12.43;;;4.23;;
6825;SDS011;3451;52.476;13.316;2022-11-11T07:00:06;8.93;;;4.30;;
6825;SDS011;3451;52.476;13.316;2022-11-11T07:02:32;9.47;;;3.97;;
6825;SDS011;3451;52.476;13.316;2022-11-11T07:04:59;10.93;;;3.83;;
6825;SDS011;3451;52.476;13.316;2022-11-11T07:07:25;12.03;;;4.07;;
6825;SDS011;3451;52.476;13.316;2022-11-11T07:09:52;7.67;;;3.70;;
6825;SDS011;3451;52.476;13.316;2022-11-11T07:12:18;13.23;;;3.90;;
6825;SDS011;3451;52.476;13.316;2022-11-11T07:14:44;11.77;;;3.97;;
6825;SDS011;3451;52.476;13.316;2022-11-11T07:17:10;9.60;;;3.50;;
6825;SDS011;3451;52.476;13.316;2022-11-11T07:19:37;11.13;;;3.87;;
6825;SDS011;3451;52.476;13.316;2022-11-11T07:22:03;8.40;;;4.10;;
6825;SDS011;3451;52.476;13.316;2022-11-11T07:24:29;9.47;;;3.97;;
6825;SDS011;3451;52.476;13.316;2022-11-11T07:26:56;9.83;;;3.97;;
6825;SDS011;3451;52.476;13.316;2022-11-11T07:29:22;14.40;;;4.63;;
6825;SDS011;3451;52.476;13.316;2022-11-11T07:31:48;11.33;;;5.00;;
6825;SDS011;3451;52.476;13.316;2022-11-11T07:34:16;11.57;;;4.03;;
6825;SDS011;3451;52.476;13.316;2022-11-11T07:36:42;9.03;;;4.17;;
6825;SDS011;3451;52.476;13.316;2022-11-11T07:39:08;9.70;;;4.30;;
6825;SDS011;3451;52.476;13.316;2022-11-11T07:41:35;14.10;;;3.57;;
6825;SDS011;3451;52.476;13.316;2022-11-11T07:44:01;9.27;;;3.77;;
6825;SDS011;3451;52.476;13.316;2022-11-11T07:46:27;10.67;;;3.80;;
6825;SDS011;3451;52.476;13.316;2022-11-11T07:48:54;8.17;;;3.60;;
6825;SDS011;3451;52.476;13.316;2022-11-11T07:51:20;8.83;;;3.50;;
6825;SDS011;3451;52.476;13.316;2022-11-11T07:53:46;9.87;;;3.73;;
6825;SDS011;3451;52.476;13.316;2022-11-11T07:56:12;8.40;;;3.53;;
6825;SDS011;3451;52.476;13.316;2022-11-11T07:58:38;7.80;;;3.50;;
6825;SDS011;3451;52.476;13.316;2022-11-11T08:01:05;7.50;;;3.43;;
6825;SDS011;3451;52.476;13.316;2022-11-11T08:03:34;9.53;;;3.60;;
6825;SDS011;3451;52.476;13.316;2022-11-11T08:06:01;9.03;;;3.70;;
6825;SDS011;3451;52.476;13.316;2022-11-11T08:08:27;8.17;;;3.57;;
6825;SDS011;3451;52.476;13.316;2022-11-11T08:10:54;8.63;;;3.47;;
6825;SDS011;3451;52.476;13.316;2022-11-11T08:13:20;7.50;;;3.43;;
6825;SDS011;3451;52.476;13.316;2022-11-11T08:16:08;7.33;;;3.50;;
6825;SDS011;3451;52.476;13.316;2022-11-11T08:18:35;10.30;;;3.90;;
6825;SDS011;3451;52.476;13.316;2022-11-11T08:21:02;12.13;;;3.87;;
6825;SDS011;3451;52.476;13.316;2022-11-11T08:23:31;10.17;;;3.53;;
6825;SDS011;3451;52.476;13.316;2022-11-11T08:26:18;7.07;;;3.70;;
6825;SDS011;3451;52.476;13.316;2022-11-11T08:28:51;9.27;;;3.57;;
6825;SDS011;3451;52.476;13.316;2022-11-11T08:31:18;10.23;;;3.63;;
6825;SDS011;3451;52.476;13.316;2022-11-11T08:33:44;8.30;;;3.47;;
6825;SDS011;3451;52.476;13.316;2022-11-11T08:36:11;9.63;;;3.67;;
6825;SDS011;3451;52.476;13.316;2022-11-11T08:38:45;7.27;;;3.40;;
6825;SDS011;3451;52.476;13.316;2022-11-11T08:41:11;9.03;;;3.30;;
6825;SDS011;3451;52.476;13.316;2022-11-11T08:43:37;10.17;;;3.77;;
6825;SDS011;3451;52.476;13.316;2022-11-11T08:46:04;9.40;;;3.60;;
6825;SDS011;3451;52.476;13.316;2022-11-11T08:48:30;10.70;;;3.90;;
6825;SDS011;3451;52.476;13.316;2022-11-11T08:50:57;8.33;;;4.10;;
6825;SDS011;3451;52.476;13.316;2022-11-11T08:53:25;7.33;;;4.07;;
6825;SDS011;3451;52.476;13.316;2022-11-11T08:55:52;7.13;;;3.57;;
6825;SDS011;3451;52.476;13.316;2022-11-11T08:58:18;6.73;;;3.50;;
6825;SDS011;3451;52.476;13.316;2022-11-11T09:00:45;9.50;;;3.87;;
6825;SDS011;3451;52.476;13.316;2022-11-11T09:03:12;9.40;;;3.50;;
6825;SDS011;3451;52.476;13.316;2022-11-11T09:05:38;7.97;;;3.53;;
6825;SDS011;3451;52.476;13.316;2022-11-11T09:08:05;7.93;;;3.90;;
6825;SDS011;3451;52.476;13.316;2022-11-11T09:10:33;8.67;;;3.60;;
6825;SDS011;3451;52.476;13.316;2022-11-11T09:12:59;9.63;;;4.30;;
6825;SDS011;3451;52.476;13.316;2022-11-11T09:15:26;9.03;;;3.50;;
6825;SDS011;3451;52.476;13.316;2022-11-11T09:17:53;7.17;;;3.60;;
6825;SDS011;3451;52.476;13.316;2022-11-11T09:20:19;6.57;;;3.80;;
6825;SDS011;3451;52.476;13.316;2022-11-11T09:22:50;7.93;;;3.10;;
6825;SDS011;3451;52.476;13.316;2022-11-11T09:25:18;8.07;;;3.77;;
6825;SDS011;3451;52.476;13.316;2022-11-11T09:27:52;11.37;;;4.10;;
6825;SDS011;3451;52.476;13.316;2022-11-11T09:30:18;6.77;;;3.73;;
6825;SDS011;3451;52.476;13.316;2022-11-11T09:32:44;7.90;;;3.37;;
6825;SDS011;3451;52.476;13.316;2022-11-11T09:35:11;6.90;;;3.47;;
6825;SDS011;3451;52.476;13.316;2022-11-11T09:37:37;9.60;;;3.47;;
6825;SDS011;3451;52.476;13.316;2022-11-11T09:40:03;8.60;;;3.50;;
6825;SDS011;3451;52.476;13.316;2022-11-11T09:42:37;9.17;;;3.50;;
6825;SDS011;3451;52.476;13.316;2022-11-11T09:45:08;7.37;;;3.57;;
6825;SDS011;3451;52.476;13.316;2022-11-11T09:47:54;8.63;;;3.20;;
6825;SDS011;3451;52.476;13.316;2022-11-11T09:50:30;10.77;;;3.70;;
6825;SDS011;3451;52.476;13.316;2022-11-11T09:52:59;8.83;;;3.77;;
6825;SDS011;3451;52.476;13.316;2022-11-11T09:55:34;5.90;;;3.20;;
6825;SDS011;3451;52.476;13.316;2022-11-11T09:58:05;8.23;;;3.80;;
6825;SDS011;3451;52.476;13.316;2022-11-11T10:00:35;7.50;;;3.80;;
6825;SDS011;3451;52.476;13.316;2022-11-11T10:08:21;7.73;;;3.13;;
6825;SDS011;3451;52.476;13.316;2022-11-11T10:10:51;6.23;;;3.23;;
6825;SDS011;3451;52.476;13.316;2022-11-11T10:15:56;6.00;;;3.27;;
6825;SDS011;3451;52.476;13.316;2022-11-11T10:18:27;10.60;;;3.47;;
6825;SDS011;3451;52.476;13.316;2022-11-11T10:20:57;9.63;;;3.70;;
6825;SDS011;3451;52.476;13.316;2022-11-11T10:23:33;5.77;;;2.80;;
6825;SDS011;3451;52.476;13.316;2022-11-11T10:26:01;8.53;;;2.70;;
6825;SDS011;3451;52.476;13.316;2022-11-11T10:28:30;6.57;;;2.80;;
6825;SDS011;3451;52.476;13.316;2022-11-11T10:30:58;7.33;;;2.87;;
6825;SDS011;3451;52.476;13.316;2022-11-11T10:33:27;9.40;;;2.80;;
6825;SDS011;3451;52.476;13.316;2022-11-11T10:35:54;6.17;;;2.83;;
6825;SDS011;3451;52.476;13.316;2022-11-11T10:38:29;7.13;;;2.50;;
6825;SDS011;3451;52.476;13.316;2022-11-11T10:41:12;5.10;;;2.23;;
6825;SDS011;3451;52.476;13.316;2022-11-11T10:43:42;7.10;;;3.10;;
6825;SDS011;3451;52.476;13.316;2022-11-11T10:46:18;7.67;;;3.00;;
6825;SDS011;3451;52.476;13.316;2022-11-11T10:48:49;9.03;;;2.87;;
6825;SDS011;3451;52.476;13.316;2022-11-11T10:51:17;6.87;;;2.90;;
6825;SDS011;3451;52.476;13.316;2022-11-11T10:56:33;6.67;;;2.43;;
6825;SDS011;3451;52.476;13.316;2022-11-11T11:01:52;7.10;;;2.57;;
6825;SDS011;3451;52.476;13.316;2022-11-11T11:04:22;6.20;;;2.77;;
6825;SDS011;3451;52.476;13.316;2022-11-11T11:06:49;8.10;;;2.40;;
6825;SDS011;3451;52.476;13.316;2022-11-11T11:09:25;5.93;;;2.40;;
6825;SDS011;3451;52.476;13.316;2022-11-11T11:12:02;7.33;;;2.37;;
6825;SDS011;3451;52.476;13.316;2022-11-11T11:14:31;6.30;;;2.43;;
6825;SDS011;3451;52.476;13.316;2022-11-11T11:17:00;5.83;;;2.57;;
6825;SDS011;3451;52.476;13.316;2022-11-11T11:19:30;4.20;;;2.33;;
6825;SDS011;3451;52.476;13.316;2022-11-11T11:21:57;4.83;;;2.50;;
6825;SDS011;3451;52.476;13.316;2022-11-11T11:24:27;7.17;;;2.73;;
6825;SDS011;3451;52.476;13.316;2022-11-11T11:26:55;6.00;;;2.50;;
6825;SDS011;3451;52.476;13.316;2022-11-11T11:29:25;8.27;;;2.40;;
6825;SDS011;3451;52.476;13.316;2022-11-11T11:31:52;3.63;;;2.30;;
6825;SDS011;3451;52.476;13.316;2022-11-11T11:34:19;5.20;;;2.70;;
6825;SDS011;3451;52.476;13.316;2022-11-11T11:36:58;6.37;;;2.50;;
6825;SDS011;3451;52.476;13.316;2022-11-11T11:39:34;6.50;;;2.47;;
6825;SDS011;3451;52.476;13.316;2022-11-11T11:42:01;6.70;;;2.40;;
6825;SDS011;3451;52.476;13.316;2022-11-11T11:44:29;8.87;;;2.77;;
6825;SDS011;3451;52.476;13.316;2022-11-11T11:49:45;9.00;;;2.50;;
6825;SDS011;3451;52.476;13.316;2022-11-11T11:52:18;5.50;;;2.47;;
6825;SDS011;3451;52.476;13.316;2022-11-11T11:54:58;7.20;;;2.40;;
6825;SDS011;3451;52.476;13.316;2022-11-11T11:57:30;4.77;;;2.47;;
6825;SDS011;3451;52.476;13.316;2022-11-11T12:00:03;6.87;;;2.40;;
6825;SDS011;3451;52.476;13.316;2022-11-11T12:05:01;7.10;;;2.30;;
6825;SDS011;3451;52.476;13.316;2022-11-11T12:07:52;5.37;;;2.20;;
6825;SDS011;3451;52.476;13.316;2022-11-11T12:10:25;9.13;;;2.30;;
6825;SDS011;3451;52.476;13.316;2022-11-11T12:18:20;4.17;;;1.90;;
6825;SDS011;3451;52.476;13.316;2022-11-11T12:20:54;6.33;;;2.53;;
6825;SDS011;3451;52.476;13.316;2022-11-11T12:23:28;7.97;;;2.10;;
6825;SDS011;3451;52.476;13.316;2022-11-11T12:28:41;6.43;;;2.20;;
6825;SDS011;3451;52.476;13.316;2022-11-11T12:33:45;5.33;;;2.27;;
6825;SDS011;3451;52.476;13.316;2022-11-11T12:36:15;4.93;;;2.20;;
6825;SDS011;3451;52.476;13.316;2022-11-11T12:41:15;6.20;;;2.20;;
6825;SDS011;3451;52.476;13.316;2022-11-11T12:43:47;4.40;;;2.53;;
6825;SDS011;3451;52.476;13.316;2022-11-11T12:46:25;8.13;;;2.10;;
6825;SDS011;3451;52.476;13.316;2022-11-11T12:49:06;6.63;;;2.40;;
6825;SDS011;3451;52.476;13.316;2022-11-11T12:51:43;6.43;;;2.10;;
6825;SDS011;3451;52.476;13.316;2022-11-11T12:54:15;5.17;;;2.00;;
6825;SDS011;3451;52.476;13.316;2022-11-11T12:59:24;6.73;;;2.30;;
6825;SDS011;3451;52.476;13.316;2022-11-11T13:01:56;4.13;;;2.27;;
6825;SDS011;3451;52.476;13.316;2022-11-11T13:04:48;6.07;;;2.40;;
6825;SDS011;3451;52.476;13.316;2022-11-11T13:10:12;9.53;;;2.40;;
6825;SDS011;3451;52.476;13.316;2022-11-11T13:12:47;4.67;;;2.40;;
6825;SDS011;3451;52.476;13.316;2022-11-11T13:15:21;7.50;;;2.50;;
6825;SDS011;3451;52.476;13.316;2022-11-11T13:17:48;6.10;;;2.50;;
6825;SDS011;3451;52.476;13.316;2022-11-11T13:23:00;5.87;;;2.43;;
6825;SDS011;3451;52.476;13.316;2022-11-11T13:25:27;5.73;;;2.10;;
6825;SDS011;3451;52.476;13.316;2022-11-11T13:27:57;5.30;;;2.20;;
6825;SDS011;3451;52.476;13.316;2022-11-11T13:30:36;4.77;;;2.27;;
6825;SDS011;3451;52.476;13.316;2022-11-11T13:33:14;4.90;;;2.03;;
6825;SDS011;3451;52.476;13.316;2022-11-11T13:35:51;7.13;;;2.37;;
6825;SDS011;3451;52.476;13.316;2022-11-11T13:38:33;5.60;;;2.40;;
6825;SDS011;3451;52.476;13.316;2022-11-11T13:41:01;5.90;;;2.10;;
6825;SDS011;3451;52.476;13.316;2022-11-11T13:45:57;3.60;;;2.30;;
6825;SDS011;3451;52.476;13.316;2022-11-11T13:48:25;4.93;;;2.20;;
6825;SDS011;3451;52.476;13.316;2022-11-11T13:50:52;8.97;;;2.53;;
6825;SDS011;3451;52.476;13.316;2022-11-11T13:53:26;5.10;;;2.60;;
6825;SDS011;3451;52.476;13.316;2022-11-11T13:55:57;4.87;;;2.63;;
6825;SDS011;3451;52.476;13.316;2022-11-11T13:58:39;4.60;;;2.33;;
6825;SDS011;3451;52.476;13.316;2022-11-11T14:01:07;8.47;;;2.30;;
6825;SDS011;3451;52.476;13.316;2022-11-11T14:14:44;5.53;;;3.00;;
6825;SDS011;3451;52.476;13.316;2022-11-11T14:21:45;7.03;;;2.37;;
6825;SDS011;3451;52.476;13.316;2022-11-11T14:24:32;7.37;;;2.30;;
6825;SDS011;3451;52.476;13.316;2022-11-11T14:27:03;5.63;;;2.60;;
6825;SDS011;3451;52.476;13.316;2022-11-11T14:29:46;8.13;;;2.67;;
6825;SDS011;3451;52.476;13.316;2022-11-11T14:32:19;5.63;;;2.50;;
6825;SDS011;3451;52.476;13.316;2022-11-11T14:37:53;5.67;;;2.10;;
6825;SDS011;3451;52.476;13.316;2022-11-11T14:40:25;5.30;;;2.60;;
6825;SDS011;3451;52.476;13.316;2022-11-11T14:42:52;3.93;;;2.47;;
6825;SDS011;3451;52.476;13.316;2022-11-11T14:47:47;5.73;;;2.60;;
6825;SDS011;3451;52.476;13.316;2022-11-11T14:52:50;7.33;;;2.80;;
6825;SDS011;3451;52.476;13.316;2022-11-11T14:57:49;4.73;;;2.30;;
6825;SDS011;3451;52.476;13.316;2022-11-11T15:00:17;7.00;;;2.90;;
6825;SDS011;3451;52.476;13.316;2022-11-11T15:05:52;7.67;;;3.00;;
6825;SDS011;3451;52.476;13.316;2022-11-11T15:08:14;6.97;;;2.73;;
6825;SDS011;3451;52.476;13.316;2022-11-11T15:13:30;6.17;;;2.50;;
6825;SDS011;3451;52.476;13.316;2022-11-11T15:16:06;5.73;;;3.07;;
6825;SDS011;3451;52.476;13.316;2022-11-11T15:18:50;6.83;;;2.60;;
6825;SDS011;3451;52.476;13.316;2022-11-11T15:21:31;9.50;;;3.23;;
6825;SDS011;3451;52.476;13.316;2022-11-11T15:24:16;7.07;;;2.90;;
6825;SDS011;3451;52.476;13.316;2022-11-11T15:31:59;7.07;;;2.73;;
6825;SDS011;3451;52.476;13.316;2022-11-11T15:34:31;5.63;;;2.90;;
6825;SDS011;3451;52.476;13.316;2022-11-11T15:37:01;6.10;;;3.00;;
6825;SDS011;3451;52.476;13.316;2022-11-11T15:39:41;6.37;;;2.50;;
6825;SDS011;3451;52.476;13.316;2022-11-11T15:42:17;7.67;;;3.20;;
6825;SDS011;3451;52.476;13.316;2022-11-11T15:44:44;7.63;;;3.20;;
6825;SDS011;3451;52.476;13.316;2022-11-11T15:47:11;10.63;;;3.20;;
6825;SDS011;3451;52.476;13.316;2022-11-11T15:49:38;8.10;;;3.20;;
6825;SDS011;3451;52.476;13.316;2022-11-11T15:52:10;8.43;;;3.20;;
6825;SDS011;3451;52.476;13.316;2022-11-11T15:54:49;9.83;;;3.43;;
6825;SDS011;3451;52.476;13.316;2022-11-11T15:57:22;7.80;;;3.20;;
6825;SDS011;3451;52.476;13.316;2022-11-11T15:59:49;10.53;;;3.70;;
6825;SDS011;3451;52.476;13.316;2022-11-11T16:02:19;11.70;;;4.27;;
6825;SDS011;3451;52.476;13.316;2022-11-11T16:05:02;11.10;;;3.90;;
6825;SDS011;3451;52.476;13.316;2022-11-11T16:07:30;9.50;;;4.03;;
6825;SDS011;3451;52.476;13.316;2022-11-11T16:09:57;7.27;;;3.50;;
6825;SDS011;3451;52.476;13.316;2022-11-11T16:12:30;7.80;;;4.13;;
6825;SDS011;3451;52.476;13.316;2022-11-11T16:14:58;8.00;;;4.33;;
6825;SDS011;3451;52.476;13.316;2022-11-11T16:17:26;6.73;;;3.63;;
6825;SDS011;3451;52.476;13.316;2022-11-11T16:19:54;8.20;;;3.83;;
6825;SDS011;3451;52.476;13.316;2022-11-11T16:22:22;9.23;;;3.73;;
6825;SDS011;3451;52.476;13.316;2022-11-11T16:24:50;9.10;;;4.03;;
6825;SDS011;3451;52.476;13.316;2022-11-11T16:27:27;8.80;;;3.70;;
6825;SDS011;3451;52.476;13.316;2022-11-11T16:29:54;8.53;;;3.67;;
6825;SDS011;3451;52.476;13.316;2022-11-11T16:34:50;8.43;;;3.60;;
6825;SDS011;3451;52.476;13.316;2022-11-11T16:37:19;6.17;;;3.70;;
6825;SDS011;3451;52.476;13.316;2022-11-11T16:39:45;8.50;;;3.93;;
6825;SDS011;3451;52.476;13.316;2022-11-11T16:42:19;6.83;;;4.17;;
6825;SDS011;3451;52.476;13.316;2022-11-11T16:44:49;6.47;;;4.00;;